Time;durP1;ratioP1;P1;durP2;ratioP2;P2;SDS_P1;SDS_P2;PMS_P1;PMS_P2;Temp;Humidity;BMP_temperature;BMP_pressure;BME280_temperature;BME280_humidity;BME280_pressure;Samples;Min_cycle;Max_cycle;Signal;HPM_P1;HPM_P2
2023/09/06 00:01:43;;;;;;;9.40;4.90;;;;;;;14.19;100.00;101110.20;1375638;89;22125;-78
2023/09/06 00:04:10;;;;;;;10.13;5.33;;;;;;;14.17;100.00;101113.01;1375183;89;21320;-79
2023/09/06 00:06:37;;;;;;;7.93;4.70;;;;;;;14.13;100.00;101113.49;1360385;91;22178;-79
2023/09/06 00:09:05;;;;;;;7.17;5.40;;;;;;;14.09;100.00;101114.77;1367133;91;21261;-79
2023/09/06 00:11:33;;;;;;;12.37;5.20;;;;;;;14.07;100.00;101114.08;1374094;90;21254;-78
2023/09/06 00:14:03;;;;;;;6.13;4.63;;;;;;;14.02;100.00;101117.72;1374413;89;21216;-79
2023/09/06 00:16:29;;;;;;;7.70;5.23;;;;;;;13.95;100.00;101118.34;1372973;89;21319;-78
2023/09/06 00:18:59;;;;;;;9.47;4.90;;;;;;;13.93;100.00;101121.63;1375589;89;21268;-79
2023/09/06 00:21:27;;;;;;;7.63;5.70;;;;;;;13.90;100.00;101125.94;1506904;89;21253;-78
2023/09/06 00:23:54;;;;;;;14.20;10.43;;;;;;;13.88;100.00;101130.56;1374636;89;21328;-79
2023/09/06 00:26:21;;;;;;;16.70;9.87;;;;;;;13.84;100.00;101129.67;1381675;89;21423;-79
2023/09/06 00:28:49;;;;;;;12.13;10.40;;;;;;;13.80;100.00;101131.81;1375259;89;21261;-79
2023/09/06 00:31:17;;;;;;;13.33;8.37;;;;;;;13.77;100.00;101133.44;1374642;89;21394;-79
2023/09/06 00:33:45;;;;;;;16.97;8.83;;;;;;;13.76;100.00;101139.27;1374129;89;21297;-79
2023/09/06 00:36:13;;;;;;;10.97;8.17;;;;;;;13.72;100.00;101137.91;1374439;89;22222;-79
2023/09/06 00:38:40;;;;;;;20.03;7.50;;;;;;;13.71;100.00;101134.05;1375344;89;21408;-79
2023/09/06 00:41:07;;;;;;;10.20;7.27;;;;;;;13.69;100.00;101130.70;1382485;89;22222;-80
2023/09/06 00:43:35;;;;;;;10.43;6.60;;;;;;;13.68;100.00;101135.19;1380830;89;21247;-80
2023/09/06 00:46:07;;;;;;;9.40;6.23;;;;;;;13.62;100.00;101137.62;1530141;89;21150;-79
2023/09/06 00:48:34;;;;;;;10.63;5.80;;;;;;;13.58;100.00;101134.43;1530270;89;21298;-81
2023/09/06 00:51:05;;;;;;;9.60;6.13;;;;;;;13.56;100.00;101142.21;1373399;89;21468;-81
2023/09/06 00:53:32;;;;;;;8.18;6.03;;;;;;;13.51;100.00;101132.84;1362362;91;21468;-81
2023/09/06 00:56:03;;;;;;;8.60;6.20;;;;;;;13.48;100.00;101137.12;1373003;90;21321;-80
2023/09/06 00:58:32;;;;;;;7.97;6.20;;;;;;;13.44;100.00;101137.09;1369808;90;21468;-81
2023/09/06 01:01:00;;;;;;;8.87;5.33;;;;;;;13.44;100.00;101137.59;1379475;90;21273;-79
2023/09/06 01:03:27;;;;;;;11.77;5.43;;;;;;;13.43;100.00;101130.58;1378385;89;21238;-81
2023/09/06 01:06:16;;;;;;;12.23;4.93;;;;;;;13.40;100.00;101131.72;1375363;89;21312;-81
2023/09/06 01:08:49;;;;;;;6.47;4.93;;;;;;;13.39;100.00;101134.05;1396040;90;21456;-81
2023/09/06 01:11:22;;;;;;;9.00;5.20;;;;;;;13.37;100.00;101133.34;1520998;90;21487;-81
2023/09/06 01:13:59;;;;;;;6.93;5.30;;;;;;;13.33;100.00;101135.14;1372479;89;21261;-80
2023/09/06 01:16:33;;;;;;;7.90;5.03;;;;;;;13.27;100.00;101135.23;1514364;90;22119;-81
2023/09/06 01:19:01;;;;;;;11.87;5.07;;;;;;;13.25;100.00;101131.84;1523925;90;21349;-80
2023/09/06 01:21:38;;;;;;;7.70;4.90;;;;;;;13.23;100.00;101125.83;1375376;89;22267;-80
2023/09/06 01:24:08;;;;;;;7.43;4.33;;;;;;;13.25;100.00;101123.88;1529844;90;21454;-81
2023/09/06 01:26:36;;;;;;;10.27;4.77;;;;;;;13.24;100.00;101123.54;1372851;89;21268;-79
2023/09/06 01:29:04;;;;;;;7.60;4.67;;;;;;;13.23;100.00;101124.50;1374880;89;21393;-80
2023/09/06 01:31:31;;;;;;;7.27;4.53;;;;;;;13.26;100.00;101122.44;1375162;89;21260;-79
2023/09/06 01:33:58;;;;;;;11.47;4.77;;;;;;;13.28;100.00;101116.96;1376092;89;21290;-79
2023/09/06 01:36:26;;;;;;;7.07;4.67;;;;;;;13.29;100.00;101114.63;1381391;89;21298;-80
2023/09/06 01:38:53;;;;;;;7.70;4.53;;;;;;;13.31;100.00;101114.84;1374852;89;21467;-79
2023/09/06 01:41:20;;;;;;;7.70;3.87;;;;;;;13.31;100.00;101115.33;1380809;89;21246;-81
2023/09/06 01:43:53;;;;;;;10.77;4.50;;;;;;;13.33;100.00;101117.36;1530365;89;21187;-79
2023/09/06 01:46:16;;;;;;;10.33;4.90;;;;;;;13.33;100.00;101112.55;1379910;90;21401;-79
2023/09/06 01:48:43;;;;;;;7.97;4.07;;;;;;;13.32;100.00;101106.36;1375857;89;21386;-80
2023/09/06 01:51:11;;;;;;;6.40;4.50;;;;;;;13.31;100.00;101107.36;1375526;89;22111;-78
2023/09/06 01:53:38;;;;;;;8.30;4.20;;;;;;;13.28;100.00;101101.02;1381266;89;21408;-79
2023/09/06 01:56:07;;;;;;;6.63;4.23;;;;;;;13.28;100.00;101103.67;1371287;89;21290;-78
2023/09/06 01:58:37;;;;;;;7.30;4.77;;;;;;;13.26;100.00;101098.52;1373559;89;21209;-79
2023/09/06 02:01:05;;;;;;;9.78;4.92;;;;;;;13.23;100.00;101096.09;1375370;89;21326;-79
2023/09/06 02:03:33;;;;;;;7.87;4.20;;;;;;;13.20;100.00;101100.88;1380826;89;21304;-79
2023/09/06 02:06:04;;;;;;;8.20;4.37;;;;;;;13.18;100.00;101105.53;1374498;89;22060;-79
2023/09/06 02:08:35;;;;;;;9.87;4.50;;;;;;;13.15;100.00;101101.81;1530215;89;21298;-79
2023/09/06 02:11:02;;;;;;;8.50;4.37;;;;;;;13.12;100.00;101101.64;1360594;90;21402;-79
2023/09/06 02:13:29;;;;;;;7.27;4.27;;;;;;;13.12;100.00;101107.42;1370851;90;22148;-79
2023/09/06 02:15:56;;;;;;;8.13;4.73;;;;;;;13.11;100.00;101105.27;1374250;90;21394;-79
2023/09/06 02:18:26;;;;;;;6.10;3.80;;;;;;;13.10;100.00;101099.11;1375617;89;21246;-79
2023/09/06 02:20:55;;;;;;;8.00;4.60;;;;;;;13.09;100.00;101100.11;1379130;89;21364;-78
2023/09/06 02:23:23;;;;;;;7.72;4.05;;;;;;;12.95;100.00;101100.59;1372840;89;21460;-78
2023/09/06 02:25:50;;;;;;;9.07;5.07;;;;;;;12.95;100.00;101100.59;1375307;89;22214;-79
2023/09/06 02:28:17;;;;;;;7.10;4.17;;;;;;;12.96;100.00;101108.91;1375133;89;21246;-79
2023/09/06 02:33:08;;;;;;;5.80;4.40;;;;;;;12.99;100.00;101103.30;1523633;85;25683;-77
2023/09/06 02:35:40;;;;;;;11.20;6.00;;;;;;;12.95;100.00;101108.56;1473533;88;21470;-77
2023/09/06 02:38:04;;;;;;;9.68;5.05;;;;;;;12.89;100.00;101111.81;1490420;87;21603;-77
2023/09/06 02:40:30;;;;;;;7.73;5.27;;;;;;;12.82;100.00;101116.02;1484329;88;22535;-79
2023/09/06 02:42:56;;;;;;;8.97;4.90;;;;;;;12.76;100.00;101116.60;1485097;88;21486;-79
2023/09/06 02:45:23;;;;;;;7.17;4.73;;;;;;;12.72;100.00;101119.22;1455205;88;21670;-77
2023/09/06 02:47:51;;;;;;;6.87;4.57;;;;;;;12.69;100.00;101116.82;1486991;88;21499;-78
2023/09/06 02:50:24;;;;;;;6.80;4.37;;;;;;;12.67;100.00;101114.82;1487647;86;22432;-77
2023/09/06 02:52:50;;;;;;;7.97;4.37;;;;;;;12.63;100.00;101112.45;1483009;86;22106;-78
2023/09/06 02:55:17;;;;;;;5.93;4.43;;;;;;;12.59;100.00;101119.02;1495379;86;22167;-77
2023/09/06 02:57:44;;;;;;;6.70;4.63;;;;;;;12.55;100.00;101120.80;1508509;86;21536;-79
2023/09/06 03:00:24;;;;;;;7.53;4.80;;;;;;;12.52;100.00;101125.90;1502523;86;21361;-79
2023/09/06 03:02:47;;;;;;;14.77;4.87;;;;;;;12.45;100.00;101127.44;1457593;89;21514;-79
2023/09/06 03:05:17;;;;;;;10.53;4.80;;;;;;;12.39;100.00;101128.01;1459077;89;21486;-79
2023/09/06 03:07:42;;;;;;;6.97;4.53;;;;;;;12.36;100.00;101129.62;1442744;89;21710;-79
2023/09/06 03:10:09;;;;;;;8.80;4.33;;;;;;;12.33;100.00;101134.72;1446690;90;21493;-79
2023/09/06 03:12:36;;;;;;;6.53;4.23;;;;;;;12.30;100.00;101138.98;1438037;88;21575;-77
2023/09/06 03:15:02;;;;;;;9.33;4.30;;;;;;;12.28;100.00;101134.80;1474609;88;21550;-81
2023/09/06 03:17:28;;;;;;;10.77;4.97;;;;;;;12.26;100.00;101138.10;1464034;89;21426;-82
2023/09/06 03:19:59;;;;;;;12.33;5.80;;;;;;;12.25;100.00;101143.04;1464510;89;21446;-82
2023/09/06 03:22:23;;;;;;;10.13;5.00;;;;;;;12.24;100.00;101140.05;1448394;89;21493;-81
2023/09/06 03:24:55;;;;;;;9.00;4.50;;;;;;;12.26;100.00;101139.43;1450937;89;21456;-80
2023/09/06 03:27:17;;;;;;;7.90;4.47;;;;;;;12.26;100.00;101146.06;1454038;89;21500;-78
2023/09/06 03:29:50;;;;;;;10.40;4.50;;;;;;;12.30;100.00;101148.77;1433529;89;21604;-80
2023/09/06 03:32:14;;;;;;;9.33;5.13;;;;;;;12.32;100.00;101142.84;1448461;89;21538;-79
2023/09/06 03:34:40;;;;;;;7.87;4.10;;;;;;;12.34;100.00;101138.20;1493935;87;21456;-80
2023/09/06 03:37:11;;;;;;;6.47;4.67;;;;;;;12.35;100.00;101143.88;1444838;90;22293;-80
2023/09/06 03:39:41;;;;;;;4.85;3.87;;;;;;;12.34;100.00;101151.48;1477297;87;22520;-79
2023/09/06 03:42:08;;;;;;;7.83;4.43;;;;;;;12.34;100.00;101148.82;1474725;87;21412;-79
2023/09/06 03:44:37;;;;;;;5.33;3.83;;;;;;;12.33;100.00;101151.97;1468251;88;21443;-80
2023/09/06 03:47:13;;;;;;;5.83;4.55;;;;;;;12.32;100.00;101154.29;1476903;88;22279;-80
2023/09/06 03:49:35;;;;;;;7.67;4.77;;;;;;;12.31;100.00;101156.58;1448724;88;22631;-80
2023/09/06 03:52:04;;;;;;;9.47;4.17;;;;;;;12.30;100.00;101160.72;1429641;91;22574;-79
2023/09/06 03:54:34;;;;;;;7.30;4.33;;;;;;;12.29;100.00;101165.69;1476873;87;21559;-78
2023/09/06 03:57:04;;;;;;;6.60;5.00;;;;;;;12.30;100.00;101163.37;1474404;87;21476;-79
2023/09/06 03:59:35;;;;;;;17.70;5.80;;;;;;;12.29;100.00;101165.19;1503061;87;21612;-78
2023/09/06 04:02:00;;;;;;;7.77;4.70;;;;;;;12.31;100.00;101169.84;1478967;87;21534;-79
2023/09/06 04:04:28;;;;;;;8.60;4.50;;;;;;;12.32;100.00;101172.87;1482112;87;22201;-82
2023/09/06 04:06:55;;;;;;;10.80;4.83;;;;;;;12.33;100.00;101169.72;1480894;86;21501;-81
2023/09/06 04:09:27;;;;;;;9.20;4.80;;;;;;;12.32;100.00;101172.87;1479216;88;22300;-81
2023/09/06 04:12:02;;;;;;;7.53;4.57;;;;;;;12.33;100.00;101172.37;1474993;87;21707;-81
2023/09/06 04:14:29;;;;;;;10.07;5.00;;;;;;;12.31;100.00;101173.00;1476599;87;21449;-81
2023/09/06 04:16:55;;;;;;;7.73;5.40;;;;;;;12.32;100.00;101174.69;1472019;88;21330;-82
2023/09/06 04:19:22;;;;;;;13.70;4.70;;;;;;;12.34;100.00;101175.36;1478037;88;21553;-81
2023/09/06 04:21:48;;;;;;;11.33;4.77;;;;;;;12.37;100.00;101175.08;1470486;87;22373;-81
2023/09/06 04:24:15;;;;;;;13.93;4.73;;;;;;;12.38;100.00;101176.28;1474495;88;21559;-81
2023/09/06 04:26:41;;;;;;;8.80;5.03;;;;;;;12.42;100.00;101179.48;1454576;88;21529;-82
2023/09/06 04:29:07;;;;;;;10.10;4.80;;;;;;;12.44;100.00;101181.52;1478573;88;21463;-82
2023/09/06 04:31:33;;;;;;;9.17;5.17;;;;;;;12.45;100.00;101179.20;1471927;87;21456;-79
2023/09/06 04:34:04;;;;;;;10.80;5.40;;;;;;;12.42;100.00;101189.61;1482045;88;21492;-81
2023/09/06 04:36:30;;;;;;;9.05;4.50;;;;;;;12.41;100.00;101188.44;1476387;86;21632;-81
2023/09/06 04:38:56;;;;;;;7.30;4.00;;;;;;;12.42;100.00;101187.45;1482369;88;21412;-82
2023/09/06 04:41:24;;;;;;;6.97;3.73;;;;;;;12.45;100.00;101188.50;1479959;88;21610;-80
2023/09/06 04:43:50;;;;;;;8.63;3.93;;;;;;;12.51;100.00;101191.91;1456918;88;21433;-80
2023/09/06 04:46:17;;;;;;;7.23;4.23;;;;;;;12.57;100.00;101194.48;1484430;88;21389;-80
2023/09/06 04:48:43;;;;;;;8.53;4.63;;;;;;;12.61;100.00;101191.42;1478967;86;21448;-79
2023/09/06 04:51:09;;;;;;;10.60;5.30;;;;;;;12.66;100.00;101192.33;1489336;86;21662;-81
2023/09/06 04:53:35;;;;;;;7.57;4.33;;;;;;;12.71;100.00;101198.53;1443066;89;22251;-81
2023/09/06 04:56:04;;;;;;;6.37;4.50;;;;;;;12.77;100.00;101198.78;1485835;86;21405;-80
2023/09/06 04:58:32;;;;;;;6.73;4.10;;;;;;;12.83;100.00;101206.20;1443659;89;21404;-81
2023/09/06 05:01:05;;;;;;;9.07;4.50;;;;;;;12.88;100.00;101203.94;1480265;86;22028;-80
2023/09/06 05:03:33;;;;;;;6.67;4.43;;;;;;;12.97;100.00;101217.34;1476658;88;21707;-81
2023/09/06 05:06:00;;;;;;;8.13;4.37;;;;;;;13.00;100.00;101204.59;1475521;86;21440;-82
2023/09/06 05:08:27;;;;;;;11.80;4.83;;;;;;;13.08;100.00;101208.70;1485480;86;22614;-81
2023/09/06 05:10:53;;;;;;;12.00;4.80;;;;;;;13.13;100.00;101208.78;1484558;86;22233;-81
2023/09/06 05:13:19;;;;;;;7.57;3.93;;;;;;;13.21;100.00;101204.91;1454283;88;21509;-79
2023/09/06 05:15:46;;;;;;;11.93;4.67;;;;;;;13.27;100.00;101208.34;1486611;86;21484;-79
2023/09/06 05:18:14;;;;;;;9.17;5.10;;;;;;;13.36;100.00;101203.47;1486300;86;22737;-80
2023/09/06 05:20:41;;;;;;;11.87;4.67;;;;;;;13.45;100.00;101206.56;1480848;86;21447;-80
2023/09/06 05:23:11;;;;;;;11.43;5.10;;;;;;;13.52;100.00;101208.13;1499733;86;21455;-79
2023/09/06 05:25:38;;;;;;;8.13;4.25;;;;;;;13.59;100.00;101212.39;1502599;86;21470;-80
2023/09/06 05:28:10;;;;;;;7.23;4.67;;;;;;;13.66;100.00;101202.81;1497942;86;21565;-81
2023/09/06 05:30:43;;;;;;;7.10;3.73;;;;;;;13.73;100.00;101204.74;1499544;86;21418;-80
2023/09/06 05:33:11;;;;;;;7.87;4.17;;;;;;;13.80;100.00;101199.66;1502987;86;21567;-77
2023/09/06 05:35:38;;;;;;;7.50;4.30;;;;;;;13.90;100.00;101203.60;1468104;87;21538;-82
2023/09/06 05:38:04;;;;;;;6.20;4.43;;;;;;;14.03;100.00;101200.56;1468952;88;21442;-81
2023/09/06 05:40:33;;;;;;;11.07;4.20;;;;;;;14.13;100.00;101199.50;1471426;87;22304;-82
2023/09/06 05:42:59;;;;;;;5.97;4.13;;;;;;;14.22;100.00;101201.75;1467082;87;21590;-82
2023/09/06 05:45:26;;;;;;;6.43;4.27;;;;;;;14.33;100.00;101198.85;1471658;87;22395;-81
2023/09/06 05:47:53;;;;;;;10.47;4.23;;;;;;;14.42;100.00;101191.77;1474140;88;21501;-80
2023/09/06 05:50:19;;;;;;;8.90;5.10;;;;;;;14.51;100.00;101192.17;1469536;87;22481;-81
2023/09/06 05:52:46;;;;;;;6.90;4.23;;;;;;;14.64;100.00;101198.45;1435557;88;21456;-82
2023/09/06 05:55:12;;;;;;;8.93;4.10;;;;;;;14.73;100.00;101201.53;1478536;87;21646;-82
2023/09/06 05:57:39;;;;;;;6.83;4.73;;;;;;;14.83;100.00;101200.92;1472701;87;21441;-81
2023/09/06 06:00:12;;;;;;;7.30;4.03;;;;;;;15.00;100.00;101206.36;1466967;88;21384;-79
2023/09/06 06:02:35;;;;;;;8.53;4.90;;;;;;;15.17;100.00;101201.96;1476007;87;22431;-81
2023/09/06 06:05:01;;;;;;;6.67;4.13;;;;;;;15.29;100.00;101202.84;1470806;87;21464;-80
2023/09/06 06:07:27;;;;;;;5.93;3.83;;;;;;;15.40;100.00;101208.91;1473718;87;21554;-79
2023/09/06 06:09:53;;;;;;;6.47;4.00;;;;;;;15.52;100.00;101211.62;1471688;87;21375;-79
2023/09/06 06:12:22;;;;;;;9.47;4.33;;;;;;;15.66;100.00;101208.84;1473793;88;21663;-79
2023/09/06 06:14:47;;;;;;;9.83;4.53;;;;;;;15.77;100.00;101208.07;1470820;87;21523;-78
2023/09/06 06:17:14;;;;;;;6.37;4.67;;;;;;;15.95;100.00;101205.77;1476431;88;21621;-78
2023/09/06 06:19:40;;;;;;;9.00;4.90;;;;;;;16.03;100.00;101199.13;1467792;88;21435;-78
2023/09/06 06:22:06;;;;;;;6.13;4.63;;;;;;;16.14;100.00;101206.82;1476767;87;22529;-79
2023/09/06 06:24:34;;;;;;;7.70;4.57;;;;;;;16.27;100.00;101200.97;1469613;87;21419;-79
2023/09/06 06:27:01;;;;;;;8.30;3.97;;;;;;;16.44;100.00;101209.84;1477624;87;22528;-77
2023/09/06 06:29:28;;;;;;;16.07;5.97;;;;;;;16.53;100.00;101208.83;1475792;87;21397;-78
2023/09/06 06:31:54;;;;;;;7.80;4.50;;;;;;;16.65;100.00;101214.16;1476030;88;21596;-78
2023/09/06 06:34:20;;;;;;;6.73;4.60;;;;;;;16.72;100.00;101212.17;1471327;88;21559;-80
2023/09/06 06:36:47;;;;;;;6.30;4.70;;;;;;;16.88;100.00;101213.50;1477834;88;21411;-80
2023/09/06 06:39:17;;;;;;;6.60;3.87;;;;;;;17.03;100.00;101211.81;1478678;87;21604;-80
2023/09/06 06:41:44;;;;;;;6.53;4.50;;;;;;;17.12;100.00;101209.45;1476464;87;21470;-81
2023/09/06 06:44:10;;;;;;;9.70;4.47;;;;;;;17.25;100.00;101210.23;1490249;88;22527;-80
2023/09/06 06:46:39;;;;;;;9.00;4.17;;;;;;;17.36;100.00;101214.38;1477188;87;21448;-80
2023/09/06 06:49:07;;;;;;;9.00;4.80;;;;;;;17.51;100.00;101205.95;1477239;87;21493;-77
2023/09/06 06:51:40;;;;;;;6.93;4.23;;;;;;;17.63;100.00;101216.27;1495206;87;22277;-79
2023/09/06 06:54:08;;;;;;;6.03;4.77;;;;;;;17.78;100.00;101217.22;1472931;88;22035;-79
2023/09/06 06:56:36;;;;;;;9.43;5.50;;;;;;;17.93;100.00;101215.99;1480698;88;21555;-79
2023/09/06 06:59:03;;;;;;;6.50;4.37;;;;;;;18.07;100.00;101211.69;1485202;87;21478;-79
2023/09/06 07:01:31;;;;;;;6.83;4.17;;;;;;;18.22;100.00;101220.66;1466788;88;21611;-79
2023/09/06 07:04:01;;;;;;;10.58;5.03;;;;;;;18.34;100.00;101211.69;1481233;87;21471;-80
2023/09/06 07:06:30;;;;;;;6.62;5.30;;;;;;;18.47;100.00;101213.23;1483671;88;21658;-79
2023/09/06 07:08:58;;;;;;;6.10;5.10;;;;;;;18.61;100.00;101208.94;1480268;87;22475;-81
2023/09/06 07:11:24;;;;;;;7.67;4.85;;;;;;;18.82;100.00;101210.46;1476976;88;21669;-80
2023/09/06 07:13:52;;;;;;;7.72;5.37;;;;;;;19.02;100.00;101207.22;1391616;88;21404;-81
2023/09/06 07:16:20;;;;;;;11.75;4.80;;;;;;;19.15;100.00;101208.25;1403091;88;21449;-80
2023/09/06 07:18:47;;;;;;;11.68;6.00;;;;;;;19.29;100.00;101209.27;1391307;88;21523;-80
2023/09/06 07:21:15;;;;;;;7.05;4.40;;;;;;;19.44;100.00;101211.11;1404059;88;21522;-80
2023/09/06 07:23:41;;;;;;;8.00;4.95;;;;;;;19.52;100.00;101219.89;1402879;87;21397;-80
2023/09/06 07:26:08;;;;;;;9.73;4.83;;;;;;;19.67;100.00;101212.36;1567336;87;21412;-81
2023/09/06 07:28:41;;;;;;;6.33;4.37;;;;;;;19.74;100.00;101210.09;1410556;87;21441;-80
2023/09/06 07:31:07;;;;;;;5.00;4.25;;;;;;;19.71;100.00;101203.75;1400712;87;21353;-81
2023/09/06 07:33:34;;;;;;;5.58;4.42;;;;;;;19.72;100.00;101208.09;1397743;88;21389;-79
2023/09/06 07:36:01;;;;;;;8.70;4.30;;;;;;;19.84;100.00;101205.22;1391394;88;21523;-82
2023/09/06 07:38:28;;;;;;;11.97;4.92;;;;;;;20.01;100.00;101202.31;1403267;87;21497;-79
2023/09/06 07:41:02;;;;;;;8.75;4.17;;;;;;;20.15;100.00;101198.73;1409209;88;21537;-81
2023/09/06 07:43:39;;;;;;;5.12;3.80;;;;;;;20.31;100.00;101203.52;1565624;88;21353;-79
2023/09/06 07:50:05;;;;;;;8.43;4.58;;;;;;;20.38;100.00;101205.77;1336305;94;21533;-79
2023/09/06 07:52:33;;;;;;;7.78;4.70;;;;;;;20.43;100.00;101206.03;1386497;90;21420;-80
2023/09/06 07:54:59;;;;;;;9.90;4.62;;;;;;;20.60;100.00;101205.25;1321773;94;22376;-81
2023/09/06 07:57:25;;;;;;;5.97;4.20;;;;;;;20.72;100.00;101209.91;1425892;90;21510;-79
2023/09/06 07:59:51;;;;;;;11.08;4.53;;;;;;;20.87;100.00;101207.64;1304667;96;22329;-80
2023/09/06 08:02:17;;;;;;;12.18;3.95;;;;;;;21.01;100.00;101206.70;1468436;90;21398;-81
2023/09/06 08:04:44;;;;;;;6.47;4.97;;;;;;;21.15;100.00;101207.09;1322688;94;21377;-81
2023/09/06 08:07:10;;;;;;;6.78;4.05;;;;;;;21.15;100.00;101207.09;1499574;90;21560;-81
2023/09/06 08:09:37;;;;;;;8.15;3.98;;;;;;;21.24;100.00;101194.83;1502100;88;21384;-79
2023/09/06 08:12:06;;;;;;;6.45;4.53;;;;;;;21.45;100.00;101204.16;1407997;88;22196;-81
2023/09/06 08:14:33;;;;;;;9.85;3.98;;;;;;;21.62;100.00;101210.04;1401607;88;21763;-80
2023/09/06 08:16:59;;;;;;;9.68;6.65;;;;;;;21.73;100.00;101207.29;1402841;88;21368;-80
2023/09/06 08:19:40;;;;;;;10.35;8.03;;;;;;;21.81;100.00;101203.07;1403423;88;21397;-80
2023/09/06 08:22:06;;;;;;;7.67;5.78;;;;;;;21.90;100.00;101203.20;1403791;88;21353;-81
2023/09/06 08:24:32;;;;;;;7.92;4.60;;;;;;;21.95;100.00;101207.95;1404014;88;21390;-81
2023/09/06 08:26:58;;;;;;;9.93;5.17;;;;;;;22.07;100.00;101199.08;1478547;88;21985;-80
2023/09/06 08:29:24;;;;;;;5.17;3.95;;;;;;;22.19;100.00;101203.37;1480183;88;21455;-81
2023/09/06 08:31:50;;;;;;;5.45;3.72;;;;;;;22.21;100.00;101197.77;1475425;88;22313;-81
2023/09/06 08:34:16;;;;;;;6.00;4.35;;;;;;;22.11;100.00;101203.54;1475187;87;21434;-79
2023/09/06 08:36:43;;;;;;;10.20;4.12;;;;;;;22.20;100.00;101200.98;1468943;87;21515;-80
2023/09/06 08:39:11;;;;;;;5.80;3.85;;;;;;;22.26;100.00;101207.42;1468864;87;22513;-81
2023/09/06 08:41:39;;;;;;;5.30;3.85;;;;;;;22.43;100.00;101205.98;1476319;87;21478;-82
2023/09/06 08:44:09;;;;;;;4.80;3.67;;;;;;;22.62;100.00;101204.86;1473536;87;21374;-82
2023/09/06 08:46:41;;;;;;;6.70;3.52;;;;;;;22.74;100.00;101199.13;1472207;87;21434;-80
2023/09/06 08:49:09;;;;;;;9.38;3.65;;;;;;;22.74;100.00;101196.44;1570734;87;21494;-81
2023/09/06 08:51:36;;;;;;;5.40;4.75;;;;;;;22.94;100.00;101195.06;1396973;88;22271;-80
2023/09/06 08:54:06;;;;;;;4.90;3.45;;;;;;;23.05;100.00;101190.40;1397474;88;21568;-81
2023/09/06 08:56:32;;;;;;;6.92;4.58;;;;;;;23.16;100.00;101191.59;1480265;88;21450;-80
2023/09/06 08:58:59;;;;;;;5.65;4.20;;;;;;;23.26;100.00;101187.94;1398334;87;21331;-81
2023/09/06 09:01:28;;;;;;;12.95;4.22;;;;;;;23.40;100.00;101189.55;1397338;87;22285;-81
2023/09/06 09:03:55;;;;;;;7.83;4.45;;;;;;;23.37;100.00;101183.23;1395912;87;21353;-81
2023/09/06 09:06:21;;;;;;;5.92;3.27;;;;;;;23.39;98.84;101192.45;1398503;88;21536;-80
2023/09/06 09:08:47;;;;;;;6.05;3.98;;;;;;;23.42;100.00;101188.83;1398683;87;21501;-79
2023/09/06 09:11:20;;;;;;;10.45;4.67;;;;;;;23.58;100.00;101192.07;1401957;87;21332;-79
2023/09/06 09:13:47;;;;;;;15.55;4.35;;;;;;;23.72;100.00;101192.34;1559229;87;21332;-80
2023/09/06 09:16:15;;;;;;;6.00;3.62;;;;;;;23.85;99.87;101195.48;1398571;87;21397;-81
2023/09/06 09:18:44;;;;;;;5.95;4.15;;;;;;;23.97;100.00;101190.25;1395921;88;22190;-80
2023/09/06 09:21:13;;;;;;;4.37;3.62;;;;;;;24.01;98.28;101195.51;1395623;87;21672;-81
2023/09/06 09:23:49;;;;;;;12.47;4.10;;;;;;;24.13;99.00;101191.58;1395858;87;21324;-81
2023/09/06 09:26:19;;;;;;;4.40;3.45;;;;;;;24.23;99.12;101192.76;1558948;87;21354;-80
2023/09/06 09:28:45;;;;;;;5.67;3.77;;;;;;;24.38;96.57;101194.31;1543727;88;21383;-80
2023/09/06 09:31:16;;;;;;;10.05;3.60;;;;;;;24.35;97.13;101194.76;1424211;88;21678;-81
2023/09/06 09:33:44;;;;;;;8.03;3.55;;;;;;;24.48;98.37;101193.31;1474327;87;21522;-81
2023/09/06 09:36:14;;;;;;;3.62;3.20;;;;;;;24.50;95.93;101189.87;1485266;87;22299;-81
2023/09/06 09:38:49;;;;;;;7.67;3.62;;;;;;;24.60;94.33;101190.20;1483081;88;21433;-81
2023/09/06 09:41:16;;;;;;;5.70;3.45;;;;;;;24.70;96.16;101189.69;1408649;88;21478;-81
2023/09/06 09:43:42;;;;;;;4.17;3.15;;;;;;;24.83;96.27;101194.98;1406819;87;21559;-81
2023/09/06 09:46:12;;;;;;;3.95;3.30;;;;;;;24.82;78.99;101195.20;1443241;88;21463;-82
2023/09/06 09:48:39;;;;;;;;;;;;;;;24.88;78.98;101192.95;1484456;87;21584;-81
2023/09/06 09:51:10;;;;;;;4.17;3.58;;;;;;;24.93;78.58;101192.58;1406622;88;20236;-81
2023/09/06 09:53:38;;;;;;;4.65;2.83;;;;;;;24.90;77.42;101193.03;1569545;87;21331;-82
2023/09/06 09:56:07;;;;;;;7.60;4.15;;;;;;;24.86;78.04;101193.69;1405591;87;21368;-81
2023/09/06 09:58:36;;;;;;;7.17;3.00;;;;;;;24.82;77.58;101187.08;1409540;87;21434;-80
2023/09/06 10:01:08;;;;;;;4.05;3.17;;;;;;;24.75;74.33;101181.20;1403568;87;22189;-82
2023/09/06 10:03:36;;;;;;;10.03;3.58;;;;;;;24.81;76.72;101196.26;1393621;88;21477;-82
2023/09/06 10:06:03;;;;;;;9.40;3.45;;;;;;;24.87;78.05;101186.70;1432306;87;21448;-80
2023/09/06 10:08:33;;;;;;;8.48;3.10;;;;;;;25.03;79.22;101188.52;1482356;87;21484;-81
2023/09/06 10:10:59;;;;;;;6.28;3.67;;;;;;;25.19;77.51;101186.61;1481672;88;21470;-82
2023/09/06 10:13:26;;;;;;;5.60;3.25;;;;;;;25.34;77.08;101186.22;1485456;87;22586;-82
2023/09/06 10:15:56;;;;;;;5.72;3.40;;;;;;;25.54;77.40;101190.86;1491645;87;21515;-83
2023/09/06 10:18:22;;;;;;;6.45;3.27;;;;;;;25.63;76.79;101184.05;1477098;88;21463;-81
2023/09/06 10:20:49;;;;;;;7.40;3.22;;;;;;;25.70;76.24;101183.16;1478984;87;21670;-82
2023/09/06 10:23:17;;;;;;;9.65;3.10;;;;;;;25.75;76.29;101180.57;1468774;88;21551;-82
2023/09/06 10:25:51;;;;;;;4.87;3.33;;;;;;;25.87;76.13;101180.14;1471725;88;21455;-83
2023/09/06 10:28:22;;;;;;;7.35;3.17;;;;;;;25.96;52.15;101174.67;1477995;87;21580;-82
2023/09/06 10:30:53;;;;;;;7.78;4.15;;;;;;;25.95;45.37;101169.47;1484487;87;21639;-82
2023/09/06 10:33:42;;;;;;;5.12;3.20;;;;;;;26.02;46.14;101165.61;1480583;88;21537;-82
2023/09/06 10:36:16;;;;;;;6.40;2.90;;;;;;;26.16;46.67;101163.52;1475227;88;21428;-83
2023/09/06 10:38:58;;;;;;;4.78;2.92;;;;;;;26.29;46.54;101165.17;1476869;88;21687;-82
2023/09/06 10:41:26;;;;;;;4.90;3.37;;;;;;;26.43;46.28;101163.89;1475071;88;22287;-83
2023/09/06 10:44:07;;;;;;;5.53;3.25;;;;;;;26.50;46.22;101172.80;1472468;88;21605;-81
2023/09/06 10:46:45;;;;;;;4.08;3.33;;;;;;;26.48;45.54;101165.37;1479880;88;21609;-79
2023/09/06 10:49:25;;;;;;;7.53;3.20;;;;;;;26.57;45.65;101170.49;1454748;88;21444;-81
2023/09/06 10:52:06;;;;;;;5.30;3.30;;;;;;;26.55;44.08;101170.71;1473666;88;21466;-82
2023/09/06 10:54:40;;;;;;;6.20;3.05;;;;;;;26.39;43.61;101162.73;1478280;88;21347;-82
2023/09/06 10:57:14;;;;;;;6.00;2.87;;;;;;;26.43;44.02;101162.53;1488408;88;21466;-82
2023/09/06 10:59:58;;;;;;;5.60;2.75;;;;;;;26.33;43.18;101162.31;1477304;88;21474;-82
2023/09/06 11:02:26;;;;;;;4.47;3.10;;;;;;;26.30;43.19;101161.42;1478221;88;22471;-83
2023/09/06 11:05:25;;;;;;;6.95;2.60;;;;;;;26.38;42.82;101161.05;1482541;88;21479;-82
2023/09/06 11:07:51;;;;;;;5.47;2.20;;;;;;;26.49;42.37;101159.41;1478119;88;21672;-83
2023/09/06 11:10:24;;;;;;;3.05;2.40;;;;;;;26.59;42.25;101149.37;1479932;88;21465;-83
2023/09/06 11:12:54;;;;;;;3.60;2.55;;;;;;;26.66;41.42;101148.70;1477734;88;22293;-83
2023/09/06 11:15:21;;;;;;;4.65;2.55;;;;;;;26.50;37.31;101141.59;1485301;88;21510;-83
2023/09/06 11:17:48;;;;;;;6.55;2.83;;;;;;;26.48;39.53;101140.95;1486764;88;21443;-82
2023/09/06 11:20:16;;;;;;;3.80;2.70;;;;;;;26.58;40.49;101143.63;1480575;88;22480;-82
2023/09/06 11:22:50;;;;;;;4.10;2.62;;;;;;;26.71;40.78;101142.05;1456509;88;21437;-82
2023/09/06 11:25:23;;;;;;;3.70;2.58;;;;;;;26.80;39.94;101139.79;1474865;88;21650;-83
2023/09/06 11:27:51;;;;;;;4.67;2.87;;;;;;;26.86;38.91;101146.44;1478905;88;22531;-81
2023/09/06 11:30:21;;;;;;;4.25;2.83;;;;;;;26.92;39.08;101139.23;1466800;88;21444;-83